sensor_id;sensor_type;location;lat;lon;timestamp;pressure;altitude;pressure_sealevel;temperature;humidity
46430;BME280;32131;53.454;-6.180;2022-11-20T00:02:09;100379.50;;;6.17;100.00
46430;BME280;32131;53.454;-6.180;2022-11-20T00:04:37;100378.72;;;6.19;100.00
46430;BME280;32131;53.454;-6.180;2022-11-20T00:07:06;100378.66;;;6.16;100.00
46430;BME280;32131;53.454;-6.180;2022-11-20T00:09:35;100380.38;;;6.17;100.00
46430;BME280;32131;53.454;-6.180;2022-11-20T00:12:04;100383.69;;;6.13;100.00
46430;BME280;32131;53.454;-6.180;2022-11-20T00:14:32;100390.63;;;6.17;100.00
46430;BME280;32131;53.454;-6.180;2022-11-20T00:17:00;100394.03;;;6.16;100.00
46430;BME280;32131;53.454;-6.180;2022-11-20T00:19:29;100406.78;;;6.14;100.00
46430;BME280;32131;53.454;-6.180;2022-11-20T00:21:57;100403.34;;;6.12;100.00
46430;BME280;32131;53.454;-6.180;2022-11-20T00:24:25;100400.66;;;6.08;100.00
46430;BME280;32131;53.454;-6.180;2022-11-20T00:26:54;100410.72;;;6.02;100.00
46430;BME280;32131;53.454;-6.180;2022-11-20T00:29:23;100405.47;;;5.98;100.00
46430;BME280;32131;53.454;-6.180;2022-11-20T00:31:51;100417.34;;;5.95;100.00
46430;BME280;32131;53.454;-6.180;2022-11-20T00:34:19;100412.06;;;5.90;100.00
46430;BME280;32131;53.454;-6.180;2022-11-20T00:36:47;100417.94;;;5.88;100.00
46430;BME280;32131;53.454;-6.180;2022-11-20T00:39:15;100415.34;;;5.86;100.00
46430;BME280;32131;53.454;-6.180;2022-11-20T00:41:44;100414.41;;;5.82;100.00
46430;BME280;32131;53.454;-6.180;2022-11-20T00:44:13;100415.28;;;5.83;100.00
46430;BME280;32131;53.454;-6.180;2022-11-20T00:46:42;100412.66;;;5.81;100.00
46430;BME280;32131;53.454;-6.180;2022-11-20T00:49:12;100410.06;;;5.80;100.00
46430;BME280;32131;53.454;-6.180;2022-11-20T00:51:40;100415.19;;;5.80;100.00
46430;BME280;32131;53.454;-6.180;2022-11-20T00:54:08;100420.19;;;5.77;100.00
46430;BME280;32131;53.454;-6.180;2022-11-20T00:56:37;100425.31;;;5.77;100.00
46430;BME280;32131;53.454;-6.180;2022-11-20T00:59:05;100426.16;;;5.76;100.00
46430;BME280;32131;53.454;-6.180;2022-11-20T01:01:36;100429.50;;;5.73;100.00
46430;BME280;32131;53.454;-6.180;2022-11-20T01:04:05;100425.13;;;5.69;100.00
46430;BME280;32131;53.454;-6.180;2022-11-20T01:06:35;100433.66;;;5.70;100.00
46430;BME280;32131;53.454;-6.180;2022-11-20T01:09:05;100427.59;;;5.67;100.00
46430;BME280;32131;53.454;-6.180;2022-11-20T01:11:36;100425.81;;;5.65;100.00
46430;BME280;32131;53.454;-6.180;2022-11-20T01:14:06;100424.06;;;5.62;100.00
46430;BME280;32131;53.454;-6.180;2022-11-20T01:16:37;100431.56;;;5.56;100.00
46430;BME280;32131;53.454;-6.180;2022-11-20T01:19:09;100430.66;;;5.56;100.00
46430;BME280;32131;53.454;-6.180;2022-11-20T01:21:45;100435.59;;;5.49;100.00
46430;BME280;32131;53.454;-6.180;2022-11-20T01:24:15;100428.69;;;5.47;100.00
46430;BME280;32131;53.454;-6.180;2022-11-20T01:26:46;100432.03;;;5.44;100.00
46430;BME280;32131;53.454;-6.180;2022-11-20T01:29:21;100439.66;;;5.43;100.00
46430;BME280;32131;53.454;-6.180;2022-11-20T01:31:51;100433.72;;;5.44;100.00
46430;BME280;32131;53.454;-6.180;2022-11-20T01:34:21;100443.88;;;5.41;100.00
46430;BME280;32131;53.454;-6.180;2022-11-20T01:36:51;100448.16;;;5.42;100.00
46430;BME280;32131;53.454;-6.180;2022-11-20T01:39:21;100446.44;;;5.41;100.00
46430;BME280;32131;53.454;-6.180;2022-11-20T01:41:52;100447.25;;;5.40;100.00
46430;BME280;32131;53.454;-6.180;2022-11-20T01:44:48;100463.47;;;5.40;100.00
46430;BME280;32131;53.454;-6.180;2022-11-20T01:47:19;100454.06;;;5.39;100.00
46430;BME280;32131;53.454;-6.180;2022-11-20T01:49:52;100463.34;;;5.35;100.00
46430;BME280;32131;53.454;-6.180;2022-11-20T01:52:24;100459.75;;;5.30;100.00
46430;BME280;32131;53.454;-6.180;2022-11-20T01:54:56;100474.97;;;5.26;100.00
46430;BME280;32131;53.454;-6.180;2022-11-20T01:57:29;100465.59;;;5.26;100.00
46430;BME280;32131;53.454;-6.180;2022-11-20T02:00:01;100469.84;;;5.26;100.00
46430;BME280;32131;53.454;-6.180;2022-11-20T02:02:32;100477.50;;;5.24;100.00
46430;BME280;32131;53.454;-6.180;2022-11-20T02:05:09;100481.75;;;5.25;100.00
46430;BME280;32131;53.454;-6.180;2022-11-20T02:07:40;100478.31;;;5.23;100.00
46430;BME280;32131;53.454;-6.180;2022-11-20T02:10:08;100482.47;;;5.19;100.00
46430;BME280;32131;53.454;-6.180;2022-11-20T02:12:37;100478.09;;;5.17;100.00
46430;BME280;32131;53.454;-6.180;2022-11-20T02:15:22;100474.63;;;5.15;100.00
46430;BME280;32131;53.454;-6.180;2022-11-20T02:17:57;100476.41;;;5.17;100.00
46430;BME280;32131;53.454;-6.180;2022-11-20T02:20:26;100483.31;;;5.20;100.00
46430;BME280;32131;53.454;-6.180;2022-11-20T02:22:59;100488.75;;;5.29;100.00
46430;BME280;32131;53.454;-6.180;2022-11-20T02:25:30;100492.56;;;5.42;100.00
46430;BME280;32131;53.454;-6.180;2022-11-20T02:28:00;100489.34;;;5.48;100.00
46430;BME280;32131;53.454;-6.180;2022-11-20T02:30:28;100497.03;;;5.48;100.00
46430;BME280;32131;53.454;-6.180;2022-11-20T02:32:57;100508.78;;;5.43;100.00
46430;BME280;32131;53.454;-6.180;2022-11-20T02:35:44;100508.66;;;5.38;100.00
46430;BME280;32131;53.454;-6.180;2022-11-20T02:38:13;100506.78;;;5.32;100.00
46430;BME280;32131;53.454;-6.180;2022-11-20T02:40:43;100505.34;;;5.41;100.00
46430;BME280;32131;53.454;-6.180;2022-11-20T02:43:16;100496.16;;;5.47;100.00
46430;BME280;32131;53.454;-6.180;2022-11-20T02:45:44;100491.84;;;5.46;100.00
46430;BME280;32131;53.454;-6.180;2022-11-20T02:48:12;100486.53;;;5.40;100.00
46430;BME280;32131;53.454;-6.180;2022-11-20T02:50:41;100478.88;;;5.42;100.00
46430;BME280;32131;53.454;-6.180;2022-11-20T02:53:09;100485.53;;;5.35;100.00
46430;BME280;32131;53.454;-6.180;2022-11-20T02:55:37;100477.75;;;5.33;100.00
46430;BME280;32131;53.454;-6.180;2022-11-20T02:58:07;100478.53;;;5.31;100.00
46430;BME280;32131;53.454;-6.180;2022-11-20T03:00:35;100481.75;;;5.25;100.00
46430;BME280;32131;53.454;-6.180;2022-11-20T03:03:03;100482.50;;;5.21;100.00
46430;BME280;32131;53.454;-6.180;2022-11-20T03:05:31;100486.59;;;5.16;100.00
46430;BME280;32131;53.454;-6.180;2022-11-20T03:07:59;100478.81;;;5.13;100.00
46430;BME280;32131;53.454;-6.180;2022-11-20T03:10:28;100486.19;;;5.03;100.00
46430;BME280;32131;53.454;-6.180;2022-11-20T03:12:56;100483.47;;;4.99;100.00
46430;BME280;32131;53.454;-6.180;2022-11-20T03:15:26;100477.25;;;4.92;100.00
46430;BME280;32131;53.454;-6.180;2022-11-20T03:17:54;100480.50;;;4.86;100.00
46430;BME280;32131;53.454;-6.180;2022-11-20T03:20:23;100477.78;;;4.82;100.00
46430;BME280;32131;53.454;-6.180;2022-11-20T03:22:53;100476.66;;;4.74;100.00
46430;BME280;32131;53.454;-6.180;2022-11-20T03:25:21;100479.13;;;4.72;100.00
46430;BME280;32131;53.454;-6.180;2022-11-20T03:27:50;100476.53;;;4.70;100.00
46430;BME280;32131;53.454;-6.180;2022-11-20T03:30:19;100476.41;;;4.67;100.00
46430;BME280;32131;53.454;-6.180;2022-11-20T03:32:54;100469.34;;;4.60;100.00
46430;BME280;32131;53.454;-6.180;2022-11-20T03:35:22;100455.41;;;4.52;100.00
46430;BME280;32131;53.454;-6.180;2022-11-20T03:37:51;100457.03;;;4.50;100.00
46430;BME280;32131;53.454;-6.180;2022-11-20T03:40:19;100450.09;;;4.46;100.00
46430;BME280;32131;53.454;-6.180;2022-11-20T03:42:47;100444.00;;;4.42;100.00
46430;BME280;32131;53.454;-6.180;2022-11-20T03:45:17;100448.94;;;4.37;100.00
46430;BME280;32131;53.454;-6.180;2022-11-20T03:47:46;100446.25;;;4.34;100.00
46430;BME280;32131;53.454;-6.180;2022-11-20T03:50:16;100441.06;;;4.31;100.00
46430;BME280;32131;53.454;-6.180;2022-11-20T03:52:46;100441.88;;;4.30;100.00
46430;BME280;32131;53.454;-6.180;2022-11-20T03:55:15;100447.66;;;4.26;100.00
46430;BME280;32131;53.454;-6.180;2022-11-20T03:57:43;100455.25;;;4.23;100.00
46430;BME280;32131;53.454;-6.180;2022-11-20T04:00:14;100461.16;;;4.22;100.00
46430;BME280;32131;53.454;-6.180;2022-11-20T04:02:43;100461.16;;;4.22;100.00
46430;BME280;32131;53.454;-6.180;2022-11-20T04:05:11;100459.44;;;4.21;100.00
46430;BME280;32131;53.454;-6.180;2022-11-20T04:07:42;100451.81;;;4.22;100.00
46430;BME280;32131;53.454;-6.180;2022-11-20T04:10:10;100459.47;;;4.22;100.00
46430;BME280;32131;53.454;-6.180;2022-11-20T04:12:39;100455.94;;;4.19;100.00
46430;BME280;32131;53.454;-6.180;2022-11-20T04:15:08;100455.06;;;4.18;100.00
46430;BME280;32131;53.454;-6.180;2022-11-20T04:17:36;100461.03;;;4.19;100.00
46430;BME280;32131;53.454;-6.180;2022-11-20T04:20:05;100465.41;;;4.21;100.00
46430;BME280;32131;53.454;-6.180;2022-11-20T04:22:34;100471.56;;;4.27;100.00
46430;BME280;32131;53.454;-6.180;2022-11-20T04:25:04;100468.13;;;4.26;100.00
46430;BME280;32131;53.454;-6.180;2022-11-20T04:27:33;100461.16;;;4.22;100.00
46430;BME280;32131;53.454;-6.180;2022-11-20T04:30:01;100461.16;;;4.22;100.00
46430;BME280;32131;53.454;-6.180;2022-11-20T04:32:29;100478.34;;;4.26;100.00
46430;BME280;32131;53.454;-6.180;2022-11-20T04:34:57;100476.72;;;4.28;100.00
46430;BME280;32131;53.454;-6.180;2022-11-20T04:37:25;100478.34;;;4.26;100.00
46430;BME280;32131;53.454;-6.180;2022-11-20T04:39:54;100472.53;;;4.30;100.00
46430;BME280;32131;53.454;-6.180;2022-11-20T04:42:23;100475.88;;;4.28;100.00
46430;BME280;32131;53.454;-6.180;2022-11-20T04:44:57;100479.22;;;4.27;100.00
46430;BME280;32131;53.454;-6.180;2022-11-20T04:47:25;100481.03;;;4.29;100.00
46430;BME280;32131;53.454;-6.180;2022-11-20T04:49:53;100468.38;;;4.32;100.00
46430;BME280;32131;53.454;-6.180;2022-11-20T04:52:22;100483.59;;;4.29;100.00
46430;BME280;32131;53.454;-6.180;2022-11-20T04:54:50;100479.22;;;4.27;100.00
46430;BME280;32131;53.454;-6.180;2022-11-20T04:57:20;100473.94;;;4.22;100.00
46430;BME280;32131;53.454;-6.180;2022-11-20T04:59:49;100476.44;;;4.20;100.00
46430;BME280;32131;53.454;-6.180;2022-11-20T05:02:18;100479.91;;;4.22;100.00
46430;BME280;32131;53.454;-6.180;2022-11-20T05:04:46;100481.53;;;4.20;100.00
46430;BME280;32131;53.454;-6.180;2022-11-20T05:07:14;100478.25;;;4.23;100.00
46430;BME280;32131;53.454;-6.180;2022-11-20T05:09:43;100481.88;;;4.30;100.00
46430;BME280;32131;53.454;-6.180;2022-11-20T05:12:11;100476.84;;;4.31;100.00
46430;BME280;32131;53.454;-6.180;2022-11-20T05:14:39;100476.91;;;4.33;100.00
46430;BME280;32131;53.454;-6.180;2022-11-20T05:17:11;100481.19;;;4.34;100.00
46430;BME280;32131;53.454;-6.180;2022-11-20T05:19:40;100481.38;;;4.38;100.00
46430;BME280;32131;53.454;-6.180;2022-11-20T05:22:08;100485.53;;;4.36;100.00
46430;BME280;32131;53.454;-6.180;2022-11-20T05:24:36;100480.66;;;4.43;100.00
46430;BME280;32131;53.454;-6.180;2022-11-20T05:27:04;100483.31;;;4.46;100.00
46430;BME280;32131;53.454;-6.180;2022-11-20T05:29:33;100480.03;;;4.50;100.00
46430;BME280;32131;53.454;-6.180;2022-11-20T05:32:01;100480.81;;;4.47;100.00
46430;BME280;32131;53.454;-6.180;2022-11-20T05:34:30;100479.22;;;4.51;100.00
46430;BME280;32131;53.454;-6.180;2022-11-20T05:36:59;100480.00;;;4.48;100.00
46430;BME280;32131;53.454;-6.180;2022-11-20T05:39:27;100476.47;;;4.45;100.00
46430;BME280;32131;53.454;-6.180;2022-11-20T05:41:55;100472.06;;;4.40;100.00
46430;BME280;32131;53.454;-6.180;2022-11-20T05:44:37;100472.16;;;4.44;100.00
46430;BME280;32131;53.454;-6.180;2022-11-20T05:47:06;100462.66;;;4.39;100.00
46430;BME280;32131;53.454;-6.180;2022-11-20T05:49:35;100460.09;;;4.39;100.00
46430;BME280;32131;53.454;-6.180;2022-11-20T05:52:04;100458.41;;;4.40;100.00
46430;BME280;32131;53.454;-6.180;2022-11-20T05:54:32;100466.84;;;4.37;100.00
46430;BME280;32131;53.454;-6.180;2022-11-20T05:57:00;100461.78;;;4.39;100.00
46430;BME280;32131;53.454;-6.180;2022-11-20T05:59:29;100463.41;;;4.37;100.00
46430;BME280;32131;53.454;-6.180;2022-11-20T06:01:57;100459.13;;;4.36;100.00
46430;BME280;32131;53.454;-6.180;2022-11-20T06:04:25;100455.00;;;4.39;100.00
46430;BME280;32131;53.454;-6.180;2022-11-20T06:06:55;100452.34;;;4.38;100.00
46430;BME280;32131;53.454;-6.180;2022-11-20T06:09:23;100454.81;;;4.35;100.00
46430;BME280;32131;53.454;-6.180;2022-11-20T06:11:51;100449.63;;;4.33;100.00
46430;BME280;32131;53.454;-6.180;2022-11-20T06:14:20;100451.44;;;4.36;100.00
46430;BME280;32131;53.454;-6.180;2022-11-20T06:16:48;100448.13;;;4.38;100.00
46430;BME280;32131;53.454;-6.180;2022-11-20T06:19:16;100443.88;;;4.39;100.00
46430;BME280;32131;53.454;-6.180;2022-11-20T06:21:45;100440.34;;;4.35;100.00
46430;BME280;32131;53.454;-6.180;2022-11-20T06:24:17;100436.84;;;4.33;100.00
46430;BME280;32131;53.454;-6.180;2022-11-20T06:26:45;100426.59;;;4.32;100.00
46430;BME280;32131;53.454;-6.180;2022-11-20T06:29:13;100423.25;;;4.34;100.00
46430;BME280;32131;53.454;-6.180;2022-11-20T06:31:42;100423.97;;;4.30;100.00
46430;BME280;32131;53.454;-6.180;2022-11-20T06:34:10;100422.28;;;4.31;100.00
46430;BME280;32131;53.454;-6.180;2022-11-20T06:36:38;100423.16;;;4.31;100.00
46430;BME280;32131;53.454;-6.180;2022-11-20T06:39:06;100428.31;;;4.33;100.00
46430;BME280;32131;53.454;-6.180;2022-11-20T06:41:36;100425.81;;;4.34;100.00
46430;BME280;32131;53.454;-6.180;2022-11-20T06:44:04;100422.56;;;4.38;100.00
46430;BME280;32131;53.454;-6.180;2022-11-20T06:46:33;100414.91;;;4.38;100.00
46430;BME280;32131;53.454;-6.180;2022-11-20T06:49:02;100407.31;;;4.41;100.00
46430;BME280;32131;53.454;-6.180;2022-11-20T06:51:30;100412.66;;;4.48;100.00
46430;BME280;32131;53.454;-6.180;2022-11-20T06:53:58;100419.41;;;4.46;100.00
46430;BME280;32131;53.454;-6.180;2022-11-20T06:56:27;100421.16;;;4.47;100.00
46430;BME280;32131;53.454;-6.180;2022-11-20T06:58:57;100422.97;;;4.51;100.00
46430;BME280;32131;53.454;-6.180;2022-11-20T07:01:25;100421.34;;;4.53;100.00
46430;BME280;32131;53.454;-6.180;2022-11-20T07:03:54;100416.13;;;4.50;100.00
46430;BME280;32131;53.454;-6.180;2022-11-20T07:06:22;100411.72;;;4.46;100.00
46430;BME280;32131;53.454;-6.180;2022-11-20T07:08:50;100417.88;;;4.51;100.00
46430;BME280;32131;53.454;-6.180;2022-11-20T07:11:19;100418.63;;;4.48;100.00
46430;BME280;32131;53.454;-6.180;2022-11-20T07:13:47;100410.84;;;4.45;100.00
46430;BME280;32131;53.454;-6.180;2022-11-20T07:16:16;100408.28;;;4.45;100.00
46430;BME280;32131;53.454;-6.180;2022-11-20T07:18:45;100405.81;;;4.47;100.00
46430;BME280;32131;53.454;-6.180;2022-11-20T07:21:16;100408.44;;;4.50;100.00
46430;BME280;32131;53.454;-6.180;2022-11-20T07:23:45;100403.41;;;4.51;100.00
46430;BME280;32131;53.454;-6.180;2022-11-20T07:26:13;100403.41;;;4.51;100.00
46430;BME280;32131;53.454;-6.180;2022-11-20T07:28:44;100398.31;;;4.51;100.00
46430;BME280;32131;53.454;-6.180;2022-11-20T07:31:13;100399.97;;;4.51;100.00
46430;BME280;32131;53.454;-6.180;2022-11-20T07:33:46;100398.31;;;4.51;100.00
46430;BME280;32131;53.454;-6.180;2022-11-20T07:36:15;100409.38;;;4.52;100.00
46430;BME280;32131;53.454;-6.180;2022-11-20T07:38:43;100409.44;;;4.53;100.00
46430;BME280;32131;53.454;-6.180;2022-11-20T07:41:12;100403.47;;;4.53;100.00
46430;BME280;32131;53.454;-6.180;2022-11-20T07:43:40;100403.28;;;4.48;100.00
46430;BME280;32131;53.454;-6.180;2022-11-20T07:46:08;100417.06;;;4.52;100.00
46430;BME280;32131;53.454;-6.180;2022-11-20T07:48:36;100407.75;;;4.54;100.00
46430;BME280;32131;53.454;-6.180;2022-11-20T07:51:06;100399.97;;;4.51;100.00
46430;BME280;32131;53.454;-6.180;2022-11-20T07:53:34;100401.72;;;4.52;100.00
46430;BME280;32131;53.454;-6.180;2022-11-20T07:56:03;100390.81;;;4.57;100.00
46430;BME280;32131;53.454;-6.180;2022-11-20T07:58:31;100397.56;;;4.55;100.00
46430;BME280;32131;53.454;-6.180;2022-11-20T08:01:05;100388.13;;;4.53;100.00
46430;BME280;32131;53.454;-6.180;2022-11-20T08:03:34;100401.09;;;4.59;100.00
46430;BME280;32131;53.454;-6.180;2022-11-20T08:06:06;100391.00;;;4.62;100.00
46430;BME280;32131;53.454;-6.180;2022-11-20T08:08:35;100402.31;;;4.69;100.00
46430;BME280;32131;53.454;-6.180;2022-11-20T08:11:08;100404.28;;;4.78;100.00
46430;BME280;32131;53.454;-6.180;2022-11-20T08:13:54;100416.47;;;4.85;100.00
46430;BME280;32131;53.454;-6.180;2022-11-20T08:16:40;100408.25;;;4.94;100.00
46430;BME280;32131;53.454;-6.180;2022-11-20T08:19:09;100417.69;;;4.96;100.00
46430;BME280;32131;53.454;-6.180;2022-11-20T08:21:39;100415.34;;;5.02;100.00
46430;BME280;32131;53.454;-6.180;2022-11-20T08:24:07;100423.13;;;5.06;100.00
46430;BME280;32131;53.454;-6.180;2022-11-20T08:26:37;100412.94;;;5.07;100.00
46430;BME280;32131;53.454;-6.180;2022-11-20T08:29:06;100423.16;;;5.07;100.00
46430;BME280;32131;53.454;-6.180;2022-11-20T08:31:34;100413.09;;;5.12;100.00
46430;BME280;32131;53.454;-6.180;2022-11-20T08:34:03;100414.94;;;5.16;100.00
46430;BME280;32131;53.454;-6.180;2022-11-20T08:36:35;100409.13;;;5.22;100.00
46430;BME280;32131;53.454;-6.180;2022-11-20T08:39:04;100405.19;;;5.31;100.00
46430;BME280;32131;53.454;-6.180;2022-11-20T08:41:33;100415.72;;;5.41;100.00
46430;BME280;32131;53.454;-6.180;2022-11-20T08:44:03;100408.41;;;5.53;100.00
46430;BME280;32131;53.454;-6.180;2022-11-20T08:46:33;100414.81;;;5.67;100.00
46430;BME280;32131;53.454;-6.180;2022-11-20T08:49:03;100414.28;;;5.79;100.00
46430;BME280;32131;53.454;-6.180;2022-11-20T08:51:31;100424.81;;;5.89;99.86
46430;BME280;32131;53.454;-6.180;2022-11-20T08:54:00;100421.75;;;5.99;99.08
46430;BME280;32131;53.454;-6.180;2022-11-20T08:56:30;100407.41;;;6.06;98.17
46430;BME280;32131;53.454;-6.180;2022-11-20T08:58:58;100425.50;;;6.10;97.37
46430;BME280;32131;53.454;-6.180;2022-11-20T09:01:47;100418.75;;;6.14;96.17
46430;BME280;32131;53.454;-6.180;2022-11-20T09:04:15;100416.31;;;6.19;94.96
46430;BME280;32131;53.454;-6.180;2022-11-20T09:06:43;100400.13;;;6.20;95.28
46430;BME280;32131;53.454;-6.180;2022-11-20T09:09:12;100407.03;;;6.22;94.39
46430;BME280;32131;53.454;-6.180;2022-11-20T09:11:42;100395.19;;;6.27;93.61
46430;BME280;32131;53.454;-6.180;2022-11-20T09:14:10;100388.44;;;6.31;93.25
46430;BME280;32131;53.454;-6.180;2022-11-20T09:16:38;100376.66;;;6.38;92.77
46430;BME280;32131;53.454;-6.180;2022-11-20T09:19:06;100373.44;;;6.45;91.82
46430;BME280;32131;53.454;-6.180;2022-11-20T09:21:56;100364.09;;;6.47;91.42
46430;BME280;32131;53.454;-6.180;2022-11-20T09:24:45;100358.97;;;6.47;91.03
46430;BME280;32131;53.454;-6.180;2022-11-20T09:27:14;100363.16;;;6.45;91.17
46430;BME280;32131;53.454;-6.180;2022-11-20T09:29:42;100356.38;;;6.45;91.18
46430;BME280;32131;53.454;-6.180;2022-11-20T09:32:10;100343.47;;;6.44;90.83
46430;BME280;32131;53.454;-6.180;2022-11-20T09:34:38;100348.59;;;6.44;90.00
46430;BME280;32131;53.454;-6.180;2022-11-20T09:37:06;100336.69;;;6.46;89.96
46430;BME280;32131;53.454;-6.180;2022-11-20T09:39:35;100339.28;;;6.48;89.72
46430;BME280;32131;53.454;-6.180;2022-11-20T09:42:26;100335.09;;;6.51;89.50
46430;BME280;32131;53.454;-6.180;2022-11-20T09:45:09;100337.75;;;6.54;89.57
46430;BME280;32131;53.454;-6.180;2022-11-20T09:50:34;100323.53;;;6.67;89.10
46430;BME280;32131;53.454;-6.180;2022-11-20T09:53:12;100328.78;;;6.72;88.73
46430;BME280;32131;53.454;-6.180;2022-11-20T09:55:42;100331.56;;;6.80;88.25
46430;BME280;32131;53.454;-6.180;2022-11-20T09:58:20;100330.94;;;6.90;88.27
46430;BME280;32131;53.454;-6.180;2022-11-20T10:00:51;100336.25;;;6.98;87.55
46430;BME280;32131;53.454;-6.180;2022-11-20T10:03:34;100339.88;;;7.06;87.14
46430;BME280;32131;53.454;-6.180;2022-11-20T10:06:05;100341.75;;;7.13;86.89
46430;BME280;32131;53.454;-6.180;2022-11-20T10:08:41;100354.69;;;7.18;86.87
46430;BME280;32131;53.454;-6.180;2022-11-20T10:11:14;100353.88;;;7.19;86.58
46430;BME280;32131;53.454;-6.180;2022-11-20T10:13:52;100365.81;;;7.18;86.01
46430;BME280;32131;53.454;-6.180;2022-11-20T10:16:32;100374.44;;;7.20;86.07
46430;BME280;32131;53.454;-6.180;2022-11-20T10:19:18;100370.94;;;7.18;86.08
46430;BME280;32131;53.454;-6.180;2022-11-20T10:21:58;100381.34;;;7.23;86.11
46430;BME280;32131;53.454;-6.180;2022-11-20T10:24:48;100401.94;;;7.24;85.91
46430;BME280;32131;53.454;-6.180;2022-11-20T10:27:37;100396.81;;;7.26;85.86
46430;BME280;32131;53.454;-6.180;2022-11-20T10:30:11;100396.84;;;7.28;85.84
46430;BME280;32131;53.454;-6.180;2022-11-20T10:32:42;100402.09;;;7.32;85.51
46430;BME280;32131;53.454;-6.180;2022-11-20T10:35:20;100387.63;;;7.36;85.92
46430;BME280;32131;53.454;-6.180;2022-11-20T10:37:52;100409.97;;;7.38;86.00
46430;BME280;32131;53.454;-6.180;2022-11-20T10:40:25;100414.31;;;7.41;85.78
46430;BME280;32131;53.454;-6.180;2022-11-20T10:42:59;100421.19;;;7.42;85.64
46430;BME280;32131;53.454;-6.180;2022-11-20T10:45:43;100420.28;;;7.42;85.49
46430;BME280;32131;53.454;-6.180;2022-11-20T10:48:15;100420.16;;;7.35;85.14
46430;BME280;32131;53.454;-6.180;2022-11-20T10:50:54;100426.16;;;7.36;85.63
46430;BME280;32131;53.454;-6.180;2022-11-20T10:53:42;100427.84;;;7.34;85.35
46430;BME280;32131;53.454;-6.180;2022-11-20T10:56:19;100426.91;;;7.30;85.23
46430;BME280;32131;53.454;-6.180;2022-11-20T10:59:07;100427.66;;;7.28;85.61
46430;BME280;32131;53.454;-6.180;2022-11-20T11:01:41;100419.09;;;7.27;85.62
46430;BME280;32131;53.454;-6.180;2022-11-20T11:04:23;100425.22;;;7.32;86.06
46430;BME280;32131;53.454;-6.180;2022-11-20T11:07:03;100427.97;;;7.40;85.59
46430;BME280;32131;53.454;-6.180;2022-11-20T11:09:36;100425.66;;;7.51;85.18
46430;BME280;32131;53.454;-6.180;2022-11-20T11:12:07;100421.53;;;7.58;84.74
46430;BME280;32131;53.454;-6.180;2022-11-20T11:14:47;100427.59;;;7.61;84.84
46430;BME280;32131;53.454;-6.180;2022-11-20T11:17:28;100430.19;;;7.63;85.06
46430;BME280;32131;53.454;-6.180;2022-11-20T11:20:02;100428.53;;;7.65;84.71
46430;BME280;32131;53.454;-6.180;2022-11-20T11:22:32;100421.75;;;7.68;84.81
46430;BME280;32131;53.454;-6.180;2022-11-20T11:25:01;100435.75;;;7.81;84.50
46430;BME280;32131;53.454;-6.180;2022-11-20T11:27:29;100435.03;;;7.89;83.63
46430;BME280;32131;53.454;-6.180;2022-11-20T11:30:13;100432.78;;;8.04;83.18
46430;BME280;32131;53.454;-6.180;2022-11-20T11:32:43;100444.38;;;8.25;81.88
46430;BME280;32131;53.454;-6.180;2022-11-20T11:35:21;100443.84;;;8.41;81.46
46430;BME280;32131;53.454;-6.180;2022-11-20T11:37:50;100443.53;;;8.26;80.43
46430;BME280;32131;53.454;-6.180;2022-11-20T11:40:22;100427.66;;;8.04;80.65
46430;BME280;32131;53.454;-6.180;2022-11-20T11:42:56;100434.22;;;7.90;80.88
46430;BME280;32131;53.454;-6.180;2022-11-20T11:45:25;100437.50;;;7.82;81.16
46430;BME280;32131;53.454;-6.180;2022-11-20T11:47:56;100433.22;;;7.83;81.46
46430;BME280;32131;53.454;-6.180;2022-11-20T11:50:25;100424.59;;;7.81;81.44
46430;BME280;32131;53.454;-6.180;2022-11-20T11:53:02;100432.38;;;7.84;80.88
46430;BME280;32131;53.454;-6.180;2022-11-20T11:55:35;100431.66;;;7.91;79.79
46430;BME280;32131;53.454;-6.180;2022-11-20T11:58:17;100453.78;;;8.24;79.50
46430;BME280;32131;53.454;-6.180;2022-11-20T12:00:54;100450.72;;;8.42;78.87
46430;BME280;32131;53.454;-6.180;2022-11-20T12:03:31;100448.09;;;8.39;78.24
46430;BME280;32131;53.454;-6.180;2022-11-20T12:06:06;100455.50;;;8.24;78.39
46430;BME280;32131;53.454;-6.180;2022-11-20T12:08:43;100446.56;;;8.06;78.62
46430;BME280;32131;53.454;-6.180;2022-11-20T12:11:16;100446.94;;;7.83;80.14
46430;BME280;32131;53.454;-6.180;2022-11-20T12:13:52;100437.19;;;7.70;80.83
46430;BME280;32131;53.454;-6.180;2022-11-20T12:16:22;100443.97;;;7.65;81.22
46430;BME280;32131;53.454;-6.180;2022-11-20T12:18:53;100443.03;;;7.63;82.21
46430;BME280;32131;53.454;-6.180;2022-11-20T12:21:29;100439.63;;;7.62;82.66
46430;BME280;32131;53.454;-6.180;2022-11-20T12:27:24;100442.31;;;7.68;83.43
46430;BME280;32131;53.454;-6.180;2022-11-20T12:30:00;100422.63;;;7.69;83.10
46430;BME280;32131;53.454;-6.180;2022-11-20T12:32:57;100438.13;;;7.74;83.16
46430;BME280;32131;53.454;-6.180;2022-11-20T12:35:44;100439.16;;;7.80;82.30
46430;BME280;32131;53.454;-6.180;2022-11-20T12:38:36;100441.81;;;7.85;82.58
46430;BME280;32131;53.454;-6.180;2022-11-20T12:41:13;100438.53;;;7.91;81.96
46430;BME280;32131;53.454;-6.180;2022-11-20T12:44:12;100438.72;;;8.00;81.85
46430;BME280;32131;53.454;-6.180;2022-11-20T12:47:09;100438.06;;;8.10;82.00
46430;BME280;32131;53.454;-6.180;2022-11-20T12:49:46;100433.91;;;8.17;82.08
46430;BME280;32131;53.454;-6.180;2022-11-20T12:52:30;100435.88;;;8.29;81.38
46430;BME280;32131;53.454;-6.180;2022-11-20T12:55:23;100448.91;;;8.37;81.08
46430;BME280;32131;53.454;-6.180;2022-11-20T12:57:57;100437.06;;;8.46;80.92
46430;BME280;32131;53.454;-6.180;2022-11-20T13:00:26;100426.91;;;8.53;79.99
46430;BME280;32131;53.454;-6.180;2022-11-20T13:03:06;100438.13;;;8.56;79.79
46430;BME280;32131;53.454;-6.180;2022-11-20T13:05:46;100436.47;;;8.58;79.61
46430;BME280;32131;53.454;-6.180;2022-11-20T13:08:23;100443.44;;;8.64;79.67
46430;BME280;32131;53.454;-6.180;2022-11-20T13:10:57;100439.28;;;8.72;79.41
46430;BME280;32131;53.454;-6.180;2022-11-20T13:13:33;100444.53;;;8.78;79.45